T7CUKI WAYY-WAVV
Flight info
| Callsign | T7CUKI |
|---|---|
| Flight time | 0h 53m |
| Altitude | 21000 |
| Route | JILLA DCT TIOMI |
| Aircraft | BT36/L-BDFGLORY/S |
Departure
| Time | 2026-05-04 12:42 |
|---|---|
| Airport | Mozes Kilangin Airport (WAYY) |
Arrival
| Time | 2026-05-04 13:35 |
|---|---|
| Airport | Wamena Airport (WAVV) |
| Time | Latitude | Longitude | Altitude | Speed | Heading |
|---|---|---|---|---|---|
| 2026-05-04 12:36 | -4.52636 | 136.87862 | 104 ft | 0 kts | 211° |
| 2026-05-04 12:39 | -4.52661 | 136.87837 | 104 ft | 12 kts | 276° |
| 2026-05-04 12:40 | -4.52613 | 136.87758 | 104 ft | 15 kts | 308° |
| 2026-05-04 12:40 | -4.52516 | 136.87791 | 104 ft | 10 kts | 34° |
| 2026-05-04 12:40 | -4.52497 | 136.87804 | 104 ft | 0 kts | 33° |
| 2026-05-04 12:41 | -4.52463 | 136.87825 | 104 ft | 13 kts | 31° |
| 2026-05-04 12:41 | -4.52475 | 136.87946 | 103 ft | 40 kts | 121° |
| 2026-05-04 12:41 | -4.52762 | 136.88418 | 127 ft | 110 kts | 121° |
| 2026-05-04 12:42 | -4.53163 | 136.89187 | 414 ft | 124 kts | 95° |
| 2026-05-04 12:42 | -4.53209 | 136.90088 | 893 ft | 131 kts | 93° |
| 2026-05-04 12:42 | -4.53174 | 136.91007 | 1359 ft | 136 kts | 84° |
| 2026-05-04 12:42 | -4.52983 | 136.91940 | 1906 ft | 136 kts | 64° |
| 2026-05-04 12:43 | -4.52487 | 136.92741 | 2463 ft | 138 kts | 54° |
| 2026-05-04 12:43 | -4.52212 | 136.93590 | 2854 ft | 138 kts | 93° |
| 2026-05-04 12:43 | -4.52204 | 136.94558 | 3254 ft | 141 kts | 89° |
| 2026-05-04 12:43 | -4.52289 | 136.95542 | 3600 ft | 144 kts | 103° |
| 2026-05-04 12:44 | -4.52425 | 136.96570 | 3774 ft | 155 kts | 96° |
| 2026-05-04 12:44 | -4.52561 | 136.97669 | 3970 ft | 159 kts | 100° |
| 2026-05-04 12:44 | -4.52664 | 136.98718 | 4531 ft | 146 kts | 96° |
| 2026-05-04 12:44 | -4.52714 | 136.99706 | 4976 ft | 144 kts | 92° |
| 2026-05-04 12:45 | -4.52744 | 137.00751 | 5127 ft | 162 kts | 92° |
| 2026-05-04 12:45 | -4.52786 | 137.01853 | 5612 ft | 149 kts | 92° |
| 2026-05-04 12:45 | -4.52873 | 137.02878 | 6002 ft | 151 kts | 95° |
| 2026-05-04 12:45 | -4.52961 | 137.03935 | 6316 ft | 156 kts | 93° |
| 2026-05-04 12:46 | -4.53019 | 137.05086 | 6421 ft | 170 kts | 92° |
| 2026-05-04 12:46 | -4.53104 | 137.06283 | 6595 ft | 173 kts | 94° |
| 2026-05-04 12:46 | -4.53189 | 137.07497 | 6767 ft | 176 kts | 94° |
| 2026-05-04 12:46 | -4.53298 | 137.08711 | 6943 ft | 175 kts | 98° |
| 2026-05-04 12:47 | -4.53565 | 137.09891 | 7120 ft | 174 kts | 105° |
| 2026-05-04 12:47 | -4.53812 | 137.11092 | 7297 ft | 178 kts | 96° |
| 2026-05-04 12:47 | -4.53933 | 137.12329 | 7478 ft | 177 kts | 96° |
| 2026-05-04 12:47 | -4.54059 | 137.13565 | 7653 ft | 180 kts | 95° |
| 2026-05-04 12:48 | -4.54153 | 137.14808 | 7824 ft | 179 kts | 94° |
| 2026-05-04 12:48 | -4.54263 | 137.16009 | 8017 ft | 170 kts | 96° |
| 2026-05-04 12:48 | -4.54391 | 137.17228 | 8219 ft | 179 kts | 95° |
| 2026-05-04 12:48 | -4.54504 | 137.18466 | 8419 ft | 179 kts | 96° |
| 2026-05-04 12:49 | -4.54621 | 137.19713 | 8618 ft | 180 kts | 95° |
| 2026-05-04 12:49 | -4.54736 | 137.20955 | 8817 ft | 181 kts | 95° |
| 2026-05-04 12:49 | -4.54855 | 137.22226 | 9024 ft | 181 kts | 95° |
| 2026-05-04 12:49 | -4.54972 | 137.23471 | 9218 ft | 182 kts | 95° |
| 2026-05-04 12:50 | -4.55091 | 137.24734 | 9419 ft | 182 kts | 95° |
| 2026-05-04 12:50 | -4.55211 | 137.25998 | 9619 ft | 182 kts | 95° |
| 2026-05-04 12:50 | -4.55331 | 137.27265 | 9820 ft | 183 kts | 95° |
| 2026-05-04 12:50 | -4.55454 | 137.28558 | 9879 ft | 191 kts | 95° |
| 2026-05-04 12:51 | -4.55584 | 137.29908 | 9886 ft | 197 kts | 95° |
| 2026-05-04 12:51 | -4.55715 | 137.31291 | 9892 ft | 201 kts | 95° |
| 2026-05-04 12:51 | -4.55848 | 137.32690 | 9893 ft | 203 kts | 95° |
| 2026-05-04 12:51 | -4.55981 | 137.34100 | 9892 ft | 204 kts | 95° |
| 2026-05-04 12:52 | -4.56114 | 137.35518 | 9893 ft | 204 kts | 95° |
| 2026-05-04 12:52 | -4.56247 | 137.36914 | 10072 ft | 196 kts | 95° |
| 2026-05-04 12:52 | -4.56372 | 137.38251 | 10316 ft | 190 kts | 95° |
| 2026-05-04 12:52 | -4.56454 | 137.39116 | 10477 ft | 187 kts | 95° |
| 2026-05-04 12:53 | -4.56618 | 137.40842 | 10805 ft | 184 kts | 95° |
| 2026-05-04 12:53 | -4.56700 | 137.41687 | 10967 ft | 184 kts | 95° |
| 2026-05-04 12:53 | -4.56823 | 137.42960 | 11214 ft | 183 kts | 95° |
| 2026-05-04 12:53 | -4.56944 | 137.44235 | 11460 ft | 184 kts | 95° |
| 2026-05-04 12:54 | -4.57066 | 137.45508 | 11703 ft | 184 kts | 95° |
| 2026-05-04 12:54 | -4.57189 | 137.46783 | 11959 ft | 184 kts | 95° |
| 2026-05-04 12:54 | -4.57313 | 137.48057 | 12208 ft | 184 kts | 95° |
| 2026-05-04 12:54 | -4.57441 | 137.49342 | 12459 ft | 186 kts | 95° |
| 2026-05-04 12:55 | -4.57568 | 137.50640 | 12710 ft | 187 kts | 95° |
| 2026-05-04 12:55 | -4.57696 | 137.51938 | 12960 ft | 187 kts | 95° |
| 2026-05-04 12:55 | -4.57823 | 137.53234 | 13209 ft | 186 kts | 95° |
| 2026-05-04 12:55 | -4.57953 | 137.54527 | 13458 ft | 186 kts | 95° |
| 2026-05-04 12:56 | -4.58084 | 137.55816 | 13708 ft | 186 kts | 95° |
| 2026-05-04 12:56 | -4.58214 | 137.57111 | 13957 ft | 187 kts | 95° |
| 2026-05-04 12:56 | -4.58348 | 137.58408 | 14206 ft | 187 kts | 95° |
| 2026-05-04 12:56 | -4.58481 | 137.59706 | 14456 ft | 188 kts | 95° |
| 2026-05-04 12:57 | -4.58617 | 137.61012 | 14706 ft | 188 kts | 95° |
| 2026-05-04 12:57 | -4.58754 | 137.62314 | 14955 ft | 188 kts | 95° |
| 2026-05-04 12:57 | -4.58893 | 137.63619 | 15204 ft | 188 kts | 95° |
| 2026-05-04 12:57 | -4.59032 | 137.64927 | 15454 ft | 189 kts | 95° |
| 2026-05-04 12:58 | -4.59170 | 137.66229 | 15703 ft | 188 kts | 95° |
| 2026-05-04 12:58 | -4.59314 | 137.67540 | 15954 ft | 189 kts | 95° |
| 2026-05-04 12:58 | -4.59456 | 137.68835 | 16201 ft | 190 kts | 95° |
| 2026-05-04 12:58 | -4.59601 | 137.70151 | 16450 ft | 190 kts | 95° |
| 2026-05-04 12:59 | -4.59746 | 137.71470 | 16700 ft | 190 kts | 95° |
| 2026-05-04 12:59 | -4.59891 | 137.72795 | 16878 ft | 195 kts | 95° |
| 2026-05-04 12:59 | -4.60046 | 137.74188 | 16887 ft | 207 kts | 95° |
| 2026-05-04 12:59 | -4.60205 | 137.75644 | 16892 ft | 213 kts | 95° |
| 2026-05-04 13:00 | -4.60368 | 137.77138 | 16893 ft | 217 kts | 95° |
| 2026-05-04 13:00 | -4.60531 | 137.78642 | 16889 ft | 218 kts | 95° |
| 2026-05-04 13:00 | -4.60696 | 137.80147 | 16891 ft | 216 kts | 95° |
| 2026-05-04 13:00 | -4.60859 | 137.81641 | 16893 ft | 215 kts | 95° |
| 2026-05-04 13:01 | -4.61015 | 137.83084 | 17182 ft | 204 kts | 95° |
| 2026-05-04 13:01 | -4.61169 | 137.84488 | 17432 ft | 201 kts | 95° |
| 2026-05-04 13:01 | -4.61325 | 137.85875 | 17677 ft | 199 kts | 95° |
| 2026-05-04 13:01 | -4.61480 | 137.87252 | 17916 ft | 199 kts | 95° |
| 2026-05-04 13:02 | -4.61635 | 137.88619 | 18169 ft | 197 kts | 95° |
| 2026-05-04 13:02 | -4.61790 | 137.89984 | 18414 ft | 196 kts | 95° |
| 2026-05-04 13:02 | -4.61944 | 137.91339 | 18662 ft | 195 kts | 95° |
| 2026-05-04 13:02 | -4.62097 | 137.92687 | 18909 ft | 194 kts | 95° |
| 2026-05-04 13:03 | -4.62249 | 137.94019 | 19156 ft | 192 kts | 95° |
| 2026-05-04 13:03 | -4.62403 | 137.95339 | 19402 ft | 189 kts | 95° |
| 2026-05-04 13:03 | -4.62555 | 137.96644 | 19647 ft | 187 kts | 95° |
| 2026-05-04 13:03 | -4.62706 | 137.97929 | 19892 ft | 184 kts | 95° |
| 2026-05-04 13:04 | -4.62852 | 137.99179 | 20132 ft | 182 kts | 95° |
| 2026-05-04 13:04 | -4.62999 | 138.00439 | 20372 ft | 179 kts | 95° |
| 2026-05-04 13:04 | -4.63145 | 138.01667 | 20624 ft | 176 kts | 95° |
| 2026-05-04 13:04 | -4.63291 | 138.02872 | 20861 ft | 173 kts | 95° |
| 2026-05-04 13:05 | -4.63439 | 138.04095 | 20886 ft | 182 kts | 95° |
| 2026-05-04 13:05 | -4.63595 | 138.05382 | 20894 ft | 191 kts | 95° |
| 2026-05-04 13:05 | -4.63754 | 138.06739 | 20902 ft | 201 kts | 95° |
| 2026-05-04 13:05 | -4.63920 | 138.08137 | 20902 ft | 208 kts | 95° |
| 2026-05-04 13:06 | -4.64094 | 138.09604 | 20901 ft | 210 kts | 95° |
| 2026-05-04 13:06 | -4.64268 | 138.11062 | 20900 ft | 211 kts | 95° |
| 2026-05-04 13:06 | -4.64439 | 138.12501 | 20900 ft | 211 kts | 95° |
| 2026-05-04 13:06 | -4.64610 | 138.13962 | 20901 ft | 211 kts | 95° |
| 2026-05-04 13:07 | -4.64783 | 138.15424 | 20899 ft | 211 kts | 95° |
| 2026-05-04 13:07 | -4.64955 | 138.16887 | 20899 ft | 211 kts | 96° |
| 2026-05-04 13:07 | -4.65125 | 138.18352 | 20899 ft | 212 kts | 95° |
| 2026-05-04 13:07 | -4.65295 | 138.19816 | 20899 ft | 212 kts | 95° |
| 2026-05-04 13:08 | -4.65465 | 138.21283 | 20899 ft | 212 kts | 95° |
| 2026-05-04 13:08 | -4.65636 | 138.22750 | 20899 ft | 212 kts | 95° |
| 2026-05-04 13:08 | -4.65805 | 138.24220 | 20899 ft | 212 kts | 95° |
| 2026-05-04 13:08 | -4.65975 | 138.25688 | 20899 ft | 212 kts | 95° |
| 2026-05-04 13:09 | -4.66146 | 138.27158 | 20899 ft | 212 kts | 95° |
| 2026-05-04 13:09 | -4.66316 | 138.28623 | 20899 ft | 212 kts | 95° |
| 2026-05-04 13:09 | -4.66487 | 138.30095 | 20900 ft | 212 kts | 95° |
| 2026-05-04 13:09 | -4.66659 | 138.31563 | 20900 ft | 212 kts | 95° |
| 2026-05-04 13:10 | -4.66841 | 138.33032 | 20899 ft | 212 kts | 96° |
| 2026-05-04 13:10 | -4.67013 | 138.34500 | 20899 ft | 212 kts | 95° |
| 2026-05-04 13:10 | -4.67183 | 138.35965 | 20899 ft | 211 kts | 95° |
| 2026-05-04 13:10 | -4.67357 | 138.37432 | 20901 ft | 212 kts | 94° |
| 2026-05-04 13:11 | -4.67493 | 138.38912 | 20899 ft | 216 kts | 95° |
| 2026-05-04 13:11 | -4.67661 | 138.40405 | 20901 ft | 215 kts | 95° |
| 2026-05-04 13:11 | -4.67833 | 138.41894 | 20900 ft | 214 kts | 96° |
| 2026-05-04 13:11 | -4.68007 | 138.43375 | 20900 ft | 214 kts | 95° |
| 2026-05-04 13:12 | -4.68177 | 138.44849 | 20898 ft | 210 kts | 95° |
| 2026-05-04 13:12 | -4.68343 | 138.46299 | 20895 ft | 209 kts | 95° |
| 2026-05-04 13:12 | -4.68505 | 138.47744 | 20893 ft | 208 kts | 95° |
| 2026-05-04 13:12 | -4.68666 | 138.49184 | 20892 ft | 208 kts | 95° |
| 2026-05-04 13:13 | -4.68825 | 138.50616 | 20889 ft | 205 kts | 95° |
| 2026-05-04 13:13 | -4.68981 | 138.52034 | 20887 ft | 204 kts | 95° |
| 2026-05-04 13:13 | -4.69133 | 138.53444 | 20884 ft | 203 kts | 95° |
| 2026-05-04 13:13 | -4.69280 | 138.54829 | 20883 ft | 202 kts | 95° |
| 2026-05-04 13:14 | -4.69428 | 138.56230 | 20885 ft | 202 kts | 95° |
| 2026-05-04 13:14 | -4.69579 | 138.57628 | 20885 ft | 202 kts | 95° |
| 2026-05-04 13:14 | -4.69728 | 138.59024 | 20886 ft | 201 kts | 95° |
| 2026-05-04 13:14 | -4.69873 | 138.60420 | 20886 ft | 201 kts | 95° |
| 2026-05-04 13:15 | -4.70016 | 138.61812 | 20886 ft | 201 kts | 95° |
| 2026-05-04 13:15 | -4.70156 | 138.63208 | 20886 ft | 201 kts | 95° |
| 2026-05-04 13:15 | -4.70296 | 138.64603 | 20887 ft | 201 kts | 94° |
| 2026-05-04 13:15 | -4.70433 | 138.65997 | 20887 ft | 201 kts | 94° |
| 2026-05-04 13:16 | -4.70568 | 138.67393 | 20886 ft | 201 kts | 94° |
| 2026-05-04 13:16 | -4.70701 | 138.68786 | 20887 ft | 201 kts | 94° |
| 2026-05-04 13:16 | -4.70831 | 138.70182 | 20887 ft | 201 kts | 94° |
| 2026-05-04 13:16 | -4.70959 | 138.71580 | 20889 ft | 202 kts | 94° |
| 2026-05-04 13:17 | -4.71083 | 138.72981 | 20890 ft | 202 kts | 94° |
| 2026-05-04 13:17 | -4.71206 | 138.74383 | 20889 ft | 202 kts | 94° |
| 2026-05-04 13:17 | -4.71330 | 138.75787 | 20887 ft | 203 kts | 94° |
| 2026-05-04 13:17 | -4.71453 | 138.77194 | 20886 ft | 202 kts | 94° |
| 2026-05-04 13:18 | -4.71575 | 138.78596 | 20884 ft | 202 kts | 94° |
| 2026-05-04 13:18 | -4.71696 | 138.79995 | 20883 ft | 202 kts | 94° |
| 2026-05-04 13:18 | -4.71816 | 138.81393 | 20881 ft | 201 kts | 94° |
| 2026-05-04 13:18 | -4.71933 | 138.82790 | 20884 ft | 201 kts | 94° |
| 2026-05-04 13:19 | -4.72048 | 138.84184 | 20883 ft | 200 kts | 94° |
| 2026-05-04 13:19 | -4.72163 | 138.85576 | 20884 ft | 201 kts | 94° |
| 2026-05-04 13:19 | -4.72278 | 138.86971 | 20885 ft | 200 kts | 94° |
| 2026-05-04 13:19 | -4.72389 | 138.88363 | 20886 ft | 200 kts | 93° |
| 2026-05-04 13:20 | -4.72498 | 138.89757 | 20886 ft | 200 kts | 93° |
| 2026-05-04 13:20 | -4.72605 | 138.91149 | 20887 ft | 201 kts | 93° |
| 2026-05-04 13:20 | -4.72713 | 138.92546 | 20886 ft | 200 kts | 93° |
| 2026-05-04 13:20 | -4.72820 | 138.93941 | 20888 ft | 201 kts | 93° |
| 2026-05-04 13:21 | -4.72838 | 138.95314 | 20883 ft | 199 kts | 77° |
| 2026-05-04 13:21 | -4.72127 | 138.96494 | 20885 ft | 199 kts | 39° |
| 2026-05-04 13:21 | -4.70868 | 138.96998 | 20891 ft | 201 kts | 11° |
| 2026-05-04 13:21 | -4.69459 | 138.97161 | 20898 ft | 202 kts | 7° |
| 2026-05-04 13:22 | -4.68058 | 138.97293 | 20898 ft | 202 kts | 7° |
| 2026-05-04 13:22 | -4.66658 | 138.97420 | 20899 ft | 202 kts | 7° |
| 2026-05-04 13:22 | -4.65256 | 138.97546 | 20900 ft | 202 kts | 7° |
| 2026-05-04 13:22 | -4.63873 | 138.97670 | 20901 ft | 202 kts | 7° |
| 2026-05-04 13:23 | -4.62472 | 138.97796 | 20899 ft | 202 kts | 6° |
| 2026-05-04 13:23 | -4.61074 | 138.97919 | 20898 ft | 201 kts | 7° |
| 2026-05-04 13:23 | -4.59672 | 138.98039 | 20901 ft | 202 kts | 7° |
| 2026-05-04 13:23 | -4.58273 | 138.98158 | 20899 ft | 202 kts | 7° |
| 2026-05-04 13:24 | -4.56866 | 138.98275 | 20901 ft | 203 kts | 6° |
| 2026-05-04 13:24 | -4.55462 | 138.98392 | 20899 ft | 203 kts | 7° |
| 2026-05-04 13:24 | -4.54054 | 138.98512 | 20900 ft | 203 kts | 7° |
| 2026-05-04 13:25 | -4.51226 | 138.98755 | 20770 ft | 209 kts | 7° |
| 2026-05-04 13:25 | -4.49732 | 138.98885 | 20387 ft | 223 kts | 6° |
| 2026-05-04 13:25 | -4.48155 | 138.99026 | 19901 ft | 231 kts | 7° |
| 2026-05-04 13:25 | -4.46542 | 138.99171 | 19413 ft | 234 kts | 6° |
| 2026-05-04 13:26 | -4.44909 | 138.99320 | 18923 ft | 236 kts | 7° |
| 2026-05-04 13:26 | -4.43266 | 138.99471 | 18429 ft | 237 kts | 7° |
| 2026-05-04 13:26 | -4.41624 | 138.99620 | 17932 ft | 236 kts | 6° |
| 2026-05-04 13:26 | -4.39994 | 138.99768 | 17436 ft | 234 kts | 7° |
| 2026-05-04 13:27 | -4.38414 | 138.99914 | 16942 ft | 225 kts | 7° |
| 2026-05-04 13:27 | -4.36932 | 139.00053 | 16432 ft | 201 kts | 7° |
| 2026-05-04 13:27 | -4.35578 | 139.00178 | 15919 ft | 193 kts | 7° |
| 2026-05-04 13:27 | -4.34249 | 139.00296 | 15415 ft | 191 kts | 6° |
| 2026-05-04 13:28 | -4.32928 | 139.00419 | 14906 ft | 189 kts | 7° |
| 2026-05-04 13:28 | -4.31627 | 139.00540 | 14405 ft | 187 kts | 7° |
| 2026-05-04 13:28 | -4.30346 | 139.00659 | 13906 ft | 184 kts | 7° |
| 2026-05-04 13:28 | -4.29098 | 139.00778 | 13581 ft | 176 kts | 7° |
| 2026-05-04 13:29 | -4.27908 | 139.00891 | 13321 ft | 168 kts | 6° |
| 2026-05-04 13:29 | -4.26769 | 139.01000 | 13061 ft | 162 kts | 7° |
| 2026-05-04 13:29 | -4.25659 | 139.01106 | 12799 ft | 158 kts | 6° |
| 2026-05-04 13:29 | -4.24580 | 139.01206 | 12542 ft | 154 kts | 6° |
| 2026-05-04 13:30 | -4.23519 | 139.01305 | 12282 ft | 152 kts | 2° |
| 2026-05-04 13:30 | -4.22491 | 139.01132 | 12023 ft | 149 kts | 347° |
| 2026-05-04 13:30 | -4.21492 | 139.00894 | 11769 ft | 146 kts | 348° |
| 2026-05-04 13:30 | -4.20503 | 139.00658 | 11515 ft | 146 kts | 348° |
| 2026-05-04 13:31 | -4.19514 | 139.00423 | 11263 ft | 145 kts | 348° |
| 2026-05-04 13:31 | -4.18535 | 139.00183 | 11010 ft | 144 kts | 345° |
| 2026-05-04 13:31 | -4.17593 | 138.99845 | 10759 ft | 144 kts | 341° |
| 2026-05-04 13:31 | -4.16659 | 138.99490 | 10500 ft | 143 kts | 341° |
| 2026-05-04 13:32 | -4.15707 | 138.99130 | 10108 ft | 149 kts | 341° |
| 2026-05-04 13:32 | -4.14732 | 138.98762 | 9890 ft | 147 kts | 340° |
| 2026-05-04 13:32 | -4.13816 | 138.98408 | 9880 ft | 132 kts | 341° |
| 2026-05-04 13:32 | -4.13022 | 138.98104 | 9857 ft | 110 kts | 340° |
| 2026-05-04 13:33 | -4.12371 | 138.97850 | 9749 ft | 95 kts | 340° |
| 2026-05-04 13:33 | -4.11753 | 138.97604 | 9566 ft | 100 kts | 339° |
| 2026-05-04 13:33 | -4.11259 | 138.97189 | 9017 ft | 62 kts | 173° |
| 2026-05-04 13:33 | -4.11618 | 138.96489 | 7148 ft | 172 kts | 296° |
| 2026-05-04 13:34 | -4.10667 | 138.95729 | 5580 ft | 192 kts | 336° |
| 2026-05-04 13:34 | -4.09584 | 138.95156 | 5437 ft | 176 kts | 334° |
| 2026-05-04 13:34 | -4.08547 | 138.94800 | 5675 ft | 132 kts | 17° |
| 2026-05-04 13:34 | -4.08028 | 138.94487 | 5734 ft | 105 kts | 231° |
| 2026-05-04 13:35 | -4.08639 | 138.94670 | 5518 ft | 110 kts | 154° |
| 2026-05-04 13:35 | -4.09601 | 138.95173 | 5415 ft | 24 kts | 157° |
| 2026-05-04 13:35 | -4.09734 | 138.95244 | 5415 ft | 24 kts | 153° |
| 2026-05-04 13:36 | -4.09873 | 138.95231 | 5408 ft | 17 kts | 253° |
| 2026-05-04 13:36 | -4.09764 | 138.95156 | 5416 ft | 23 kts | 333° |
| 2026-05-04 13:36 | -4.09612 | 138.95074 | 5417 ft | 18 kts | 328° |
| 2026-05-04 13:36 | -4.09554 | 138.95003 | 5418 ft | 10 kts | 263° |
| 2026-05-04 13:37 | -4.09555 | 138.94999 | 5418 ft | 0 kts | 263° |
| 2026-05-04 13:37 | -4.09555 | 138.95000 | 5418 ft | 1 kts | 263° |
| 2026-05-04 13:38 | -4.09558 | 138.95004 | 5418 ft | 8 kts | 199° |
| 2026-05-04 13:38 | -4.09567 | 138.95001 | 5417 ft | 0 kts | 198° |